sensor_id;sensor_type;location;lat;lon;timestamp;temperature;humidity
40738;DHT22;54759;48.094;-1.628;2023-02-28T00:01:00;20.10;27.60
40738;DHT22;54759;48.094;-1.628;2023-02-28T00:04:02;20.10;29.30
40738;DHT22;54759;48.094;-1.628;2023-02-28T00:07:03;19.80;29.60
40738;DHT22;54759;48.094;-1.628;2023-02-28T00:10:06;20.10;29.40
40738;DHT22;54759;48.094;-1.628;2023-02-28T00:13:08;19.80;29.20
40738;DHT22;54759;48.094;-1.628;2023-02-28T00:16:11;19.80;29.10
40738;DHT22;54759;48.094;-1.628;2023-02-28T00:19:16;20.10;29.20
40738;DHT22;54759;48.094;-1.628;2023-02-28T00:22:20;19.70;29.20
40738;DHT22;54759;48.094;-1.628;2023-02-28T00:25:22;19.80;29.20
40738;DHT22;54759;48.094;-1.628;2023-02-28T00:28:24;20.20;29.40
40738;DHT22;54759;48.094;-1.628;2023-02-28T00:31:26;19.70;29.30
40738;DHT22;54759;48.094;-1.628;2023-02-28T00:34:27;19.80;29.30
40738;DHT22;54759;48.094;-1.628;2023-02-28T00:37:29;19.80;29.30
40738;DHT22;54759;48.094;-1.628;2023-02-28T00:40:31;19.80;29.00
40738;DHT22;54759;48.094;-1.628;2023-02-28T00:43:33;19.80;29.40
40738;DHT22;54759;48.094;-1.628;2023-02-28T00:46:35;20.20;29.50
40738;DHT22;54759;48.094;-1.628;2023-02-28T00:49:36;20.30;29.60
40738;DHT22;54759;48.094;-1.628;2023-02-28T00:52:38;20.10;29.50
40738;DHT22;54759;48.094;-1.628;2023-02-28T00:55:39;20.00;29.50
40738;DHT22;54759;48.094;-1.628;2023-02-28T00:58:41;19.80;29.40
40738;DHT22;54759;48.094;-1.628;2023-02-28T01:01:43;19.70;29.30
40738;DHT22;54759;48.094;-1.628;2023-02-28T01:04:44;19.90;29.40
40738;DHT22;54759;48.094;-1.628;2023-02-28T01:07:46;19.80;29.40
40738;DHT22;54759;48.094;-1.628;2023-02-28T01:10:48;19.70;29.40
40738;DHT22;54759;48.094;-1.628;2023-02-28T01:13:49;20.20;29.70
40738;DHT22;54759;48.094;-1.628;2023-02-28T01:16:51;19.90;29.50
40738;DHT22;54759;48.094;-1.628;2023-02-28T01:19:53;20.10;29.60
40738;DHT22;54759;48.094;-1.628;2023-02-28T01:22:54;20.00;29.50
40738;DHT22;54759;48.094;-1.628;2023-02-28T01:25:56;19.70;29.50
40738;DHT22;54759;48.094;-1.628;2023-02-28T01:28:57;19.90;29.60
40738;DHT22;54759;48.094;-1.628;2023-02-28T01:31:59;20.00;29.60
40738;DHT22;54759;48.094;-1.628;2023-02-28T01:35:01;20.00;29.60
40738;DHT22;54759;48.094;-1.628;2023-02-28T01:38:03;19.70;29.50
40738;DHT22;54759;48.094;-1.628;2023-02-28T01:41:23;19.70;29.50
40738;DHT22;54759;48.094;-1.628;2023-02-28T01:47:40;19.70;29.30
40738;DHT22;54759;48.094;-1.628;2023-02-28T01:50:43;20.10;29.60
40738;DHT22;54759;48.094;-1.628;2023-02-28T01:53:46;20.10;29.60
40738;DHT22;54759;48.094;-1.628;2023-02-28T01:56:50;19.80;29.50
40738;DHT22;54759;48.094;-1.628;2023-02-28T01:59:53;19.90;29.60
40738;DHT22;54759;48.094;-1.628;2023-02-28T02:02:57;19.60;29.50
40738;DHT22;54759;48.094;-1.628;2023-02-28T02:05:59;19.90;29.60
40738;DHT22;54759;48.094;-1.628;2023-02-28T02:09:00;19.50;30.00
40738;DHT22;54759;48.094;-1.628;2023-02-28T02:12:03;20.10;29.80
40738;DHT22;54759;48.094;-1.628;2023-02-28T02:15:11;19.50;29.40
40738;DHT22;54759;48.094;-1.628;2023-02-28T02:18:17;19.90;29.60
40738;DHT22;54759;48.094;-1.628;2023-02-28T02:21:26;20.00;29.70
40738;DHT22;54759;48.094;-1.628;2023-02-28T02:24:46;19.90;29.50
40738;DHT22;54759;48.094;-1.628;2023-02-28T02:27:58;19.90;29.60
40738;DHT22;54759;48.094;-1.628;2023-02-28T02:31:06;19.90;29.70
40738;DHT22;54759;48.094;-1.628;2023-02-28T02:34:21;19.90;29.60
40738;DHT22;54759;48.094;-1.628;2023-02-28T02:37:27;19.80;29.60
40738;DHT22;54759;48.094;-1.628;2023-02-28T02:40:35;19.50;29.40
40738;DHT22;54759;48.094;-1.628;2023-02-28T02:43:39;19.80;29.50
40738;DHT22;54759;48.094;-1.628;2023-02-28T02:46:43;19.60;29.60
40738;DHT22;54759;48.094;-1.628;2023-02-28T02:49:47;19.70;29.60
40738;DHT22;54759;48.094;-1.628;2023-02-28T02:52:51;19.80;29.60
40738;DHT22;54759;48.094;-1.628;2023-02-28T02:55:53;20.00;29.70
40738;DHT22;54759;48.094;-1.628;2023-02-28T02:58:58;19.50;29.60
40738;DHT22;54759;48.094;-1.628;2023-02-28T03:02:02;19.90;29.70
40738;DHT22;54759;48.094;-1.628;2023-02-28T03:05:06;19.60;29.60
40738;DHT22;54759;48.094;-1.628;2023-02-28T03:08:08;19.80;29.70
40738;DHT22;54759;48.094;-1.628;2023-02-28T03:11:11;19.50;29.80
40738;DHT22;54759;48.094;-1.628;2023-02-28T03:14:20;19.90;29.80
40738;DHT22;54759;48.094;-1.628;2023-02-28T03:17:30;19.70;29.70
40738;DHT22;54759;48.094;-1.628;2023-02-28T03:20:39;19.80;29.70
40738;DHT22;54759;48.094;-1.628;2023-02-28T03:23:45;20.00;29.80
40738;DHT22;54759;48.094;-1.628;2023-02-28T03:26:53;19.60;29.60
40738;DHT22;54759;48.094;-1.628;2023-02-28T03:29:58;19.60;29.70
40738;DHT22;54759;48.094;-1.628;2023-02-28T03:33:02;19.40;29.70
40738;DHT22;54759;48.094;-1.628;2023-02-28T03:36:07;19.90;29.80
40738;DHT22;54759;48.094;-1.628;2023-02-28T03:39:11;19.50;29.70
40738;DHT22;54759;48.094;-1.628;2023-02-28T03:42:15;19.40;30.00
40738;DHT22;54759;48.094;-1.628;2023-02-28T03:45:19;19.80;29.90
40738;DHT22;54759;48.094;-1.628;2023-02-28T03:48:24;19.50;29.70
40738;DHT22;54759;48.094;-1.628;2023-02-28T03:51:28;19.90;29.90
40738;DHT22;54759;48.094;-1.628;2023-02-28T03:54:31;20.00;29.90
40738;DHT22;54759;48.094;-1.628;2023-02-28T03:57:34;19.70;29.80
40738;DHT22;54759;48.094;-1.628;2023-02-28T04:00:39;19.60;29.70
40738;DHT22;54759;48.094;-1.628;2023-02-28T04:03:41;19.80;29.90
40738;DHT22;54759;48.094;-1.628;2023-02-28T04:06:43;20.10;30.00
40738;DHT22;54759;48.094;-1.628;2023-02-28T04:09:44;19.80;29.90
40738;DHT22;54759;48.094;-1.628;2023-02-28T04:12:46;19.50;29.80
40738;DHT22;54759;48.094;-1.628;2023-02-28T04:15:47;19.90;29.90
40738;DHT22;54759;48.094;-1.628;2023-02-28T04:18:48;19.80;30.00
40738;DHT22;54759;48.094;-1.628;2023-02-28T04:21:51;19.60;29.70
40738;DHT22;54759;48.094;-1.628;2023-02-28T04:24:52;19.90;30.00
40738;DHT22;54759;48.094;-1.628;2023-02-28T04:27:55;19.80;29.80
40738;DHT22;54759;48.094;-1.628;2023-02-28T04:30:56;19.40;29.80
40738;DHT22;54759;48.094;-1.628;2023-02-28T04:33:58;19.90;29.90
40738;DHT22;54759;48.094;-1.628;2023-02-28T04:37:00;19.50;29.90
40738;DHT22;54759;48.094;-1.628;2023-02-28T04:40:17;19.70;29.90
40738;DHT22;54759;48.094;-1.628;2023-02-28T04:43:19;19.50;29.90
40738;DHT22;54759;48.094;-1.628;2023-02-28T04:46:20;19.50;29.90
40738;DHT22;54759;48.094;-1.628;2023-02-28T04:49:21;19.50;29.80
40738;DHT22;54759;48.094;-1.628;2023-02-28T04:52:23;19.80;30.00
40738;DHT22;54759;48.094;-1.628;2023-02-28T04:55:25;19.90;30.00
40738;DHT22;54759;48.094;-1.628;2023-02-28T04:58:26;19.90;30.00
40738;DHT22;54759;48.094;-1.628;2023-02-28T05:01:29;19.50;29.90
40738;DHT22;54759;48.094;-1.628;2023-02-28T05:04:32;19.50;29.80
40738;DHT22;54759;48.094;-1.628;2023-02-28T05:07:35;19.40;29.80
40738;DHT22;54759;48.094;-1.628;2023-02-28T05:10:36;19.50;29.90
40738;DHT22;54759;48.094;-1.628;2023-02-28T05:13:38;19.80;30.00
40738;DHT22;54759;48.094;-1.628;2023-02-28T05:16:39;19.70;30.00
40738;DHT22;54759;48.094;-1.628;2023-02-28T05:19:40;19.70;30.00
40738;DHT22;54759;48.094;-1.628;2023-02-28T05:22:42;19.80;30.00
40738;DHT22;54759;48.094;-1.628;2023-02-28T05:25:44;19.60;29.90
40738;DHT22;54759;48.094;-1.628;2023-02-28T05:28:45;19.60;29.90
40738;DHT22;54759;48.094;-1.628;2023-02-28T05:31:47;19.80;30.00
40738;DHT22;54759;48.094;-1.628;2023-02-28T05:34:48;19.50;29.90
40738;DHT22;54759;48.094;-1.628;2023-02-28T05:37:50;19.50;30.00
40738;DHT22;54759;48.094;-1.628;2023-02-28T05:40:51;19.40;29.90
40738;DHT22;54759;48.094;-1.628;2023-02-28T05:43:54;19.30;29.90
40738;DHT22;54759;48.094;-1.628;2023-02-28T05:46:55;19.50;29.90
40738;DHT22;54759;48.094;-1.628;2023-02-28T05:49:57;19.80;30.00
40738;DHT22;54759;48.094;-1.628;2023-02-28T05:52:58;19.50;30.00
40738;DHT22;54759;48.094;-1.628;2023-02-28T05:56:00;19.30;30.00
40738;DHT22;54759;48.094;-1.628;2023-02-28T05:59:01;19.40;29.90
40738;DHT22;54759;48.094;-1.628;2023-02-28T06:02:02;19.40;30.00
40738;DHT22;54759;48.094;-1.628;2023-02-28T06:05:04;19.70;30.10
40738;DHT22;54759;48.094;-1.628;2023-02-28T06:08:06;19.60;30.00
40738;DHT22;54759;48.094;-1.628;2023-02-28T06:11:08;19.80;30.10
40738;DHT22;54759;48.094;-1.628;2023-02-28T06:14:10;19.70;30.10
40738;DHT22;54759;48.094;-1.628;2023-02-28T06:17:14;19.50;29.90
40738;DHT22;54759;48.094;-1.628;2023-02-28T06:20:15;19.80;30.00
40738;DHT22;54759;48.094;-1.628;2023-02-28T06:23:17;19.60;30.00
40738;DHT22;54759;48.094;-1.628;2023-02-28T06:26:18;19.50;30.00
40738;DHT22;54759;48.094;-1.628;2023-02-28T06:29:19;19.80;30.10
40738;DHT22;54759;48.094;-1.628;2023-02-28T06:32:21;19.60;30.00
40738;DHT22;54759;48.094;-1.628;2023-02-28T06:35:22;19.70;30.00
40738;DHT22;54759;48.094;-1.628;2023-02-28T06:38:24;19.60;30.00
40738;DHT22;54759;48.094;-1.628;2023-02-28T06:41:26;19.70;30.00
40738;DHT22;54759;48.094;-1.628;2023-02-28T06:44:29;19.90;30.10
40738;DHT22;54759;48.094;-1.628;2023-02-28T06:47:36;19.70;30.00
40738;DHT22;54759;48.094;-1.628;2023-02-28T06:50:37;19.70;30.00
40738;DHT22;54759;48.094;-1.628;2023-02-28T06:53:39;19.30;30.00
40738;DHT22;54759;48.094;-1.628;2023-02-28T06:56:41;19.70;30.00
40738;DHT22;54759;48.094;-1.628;2023-02-28T06:59:42;19.80;30.00
40738;DHT22;54759;48.094;-1.628;2023-02-28T07:02:43;19.70;30.00
40738;DHT22;54759;48.094;-1.628;2023-02-28T07:05:45;19.70;30.00
40738;DHT22;54759;48.094;-1.628;2023-02-28T07:08:47;19.70;30.00
40738;DHT22;54759;48.094;-1.628;2023-02-28T07:11:49;19.70;30.00
40738;DHT22;54759;48.094;-1.628;2023-02-28T07:14:50;19.70;29.10
40738;DHT22;54759;48.094;-1.628;2023-02-28T07:17:51;19.80;30.00
40738;DHT22;54759;48.094;-1.628;2023-02-28T07:20:53;19.50;29.60
40738;DHT22;54759;48.094;-1.628;2023-02-28T07:23:55;20.00;29.80
40738;DHT22;54759;48.094;-1.628;2023-02-28T07:26:57;19.90;29.80
40738;DHT22;54759;48.094;-1.628;2023-02-28T07:29:58;19.90;29.60
40738;DHT22;54759;48.094;-1.628;2023-02-28T07:33:02;19.60;29.40
40738;DHT22;54759;48.094;-1.628;2023-02-28T07:36:05;20.10;29.60
40738;DHT22;54759;48.094;-1.628;2023-02-28T07:39:08;20.10;29.40
40738;DHT22;54759;48.094;-1.628;2023-02-28T07:42:10;20.10;29.40
40738;DHT22;54759;48.094;-1.628;2023-02-28T07:45:13;19.90;29.20
40738;DHT22;54759;48.094;-1.628;2023-02-28T07:48:15;20.10;29.50
40738;DHT22;54759;48.094;-1.628;2023-02-28T07:51:16;20.10;29.30
40738;DHT22;54759;48.094;-1.628;2023-02-28T07:54:18;20.20;29.40
40738;DHT22;54759;48.094;-1.628;2023-02-28T07:57:20;20.00;29.20
40738;DHT22;54759;48.094;-1.628;2023-02-28T08:00:21;19.40;28.80
40738;DHT22;54759;48.094;-1.628;2023-02-28T08:03:24;20.20;29.10
40738;DHT22;54759;48.094;-1.628;2023-02-28T08:06:25;20.30;28.50
40738;DHT22;54759;48.094;-1.628;2023-02-28T08:09:27;20.10;28.90
40738;DHT22;54759;48.094;-1.628;2023-02-28T08:12:30;20.50;29.20
40738;DHT22;54759;48.094;-1.628;2023-02-28T08:15:32;20.20;28.90
40738;DHT22;54759;48.094;-1.628;2023-02-28T08:18:33;20.60;29.30
40738;DHT22;54759;48.094;-1.628;2023-02-28T08:21:34;19.90;28.80
40738;DHT22;54759;48.094;-1.628;2023-02-28T08:24:36;20.50;29.20
40738;DHT22;54759;48.094;-1.628;2023-02-28T08:27:38;20.30;29.00
40738;DHT22;54759;48.094;-1.628;2023-02-28T08:30:39;20.20;28.90
40738;DHT22;54759;48.094;-1.628;2023-02-28T08:33:42;20.30;29.00
40738;DHT22;54759;48.094;-1.628;2023-02-28T08:36:45;20.50;28.90
40738;DHT22;54759;48.094;-1.628;2023-02-28T08:39:47;20.40;28.90
40738;DHT22;54759;48.094;-1.628;2023-02-28T08:42:48;20.60;28.90
40738;DHT22;54759;48.094;-1.628;2023-02-28T08:45:51;20.50;28.70
40738;DHT22;54759;48.094;-1.628;2023-02-28T08:48:53;20.60;29.10
40738;DHT22;54759;48.094;-1.628;2023-02-28T08:51:54;20.20;28.80
40738;DHT22;54759;48.094;-1.628;2023-02-28T08:54:56;20.70;29.00
40738;DHT22;54759;48.094;-1.628;2023-02-28T08:57:57;20.30;28.80
40738;DHT22;54759;48.094;-1.628;2023-02-28T09:00:59;20.70;29.00
40738;DHT22;54759;48.094;-1.628;2023-02-28T09:04:00;20.60;28.90
40738;DHT22;54759;48.094;-1.628;2023-02-28T09:07:03;20.60;28.80
40738;DHT22;54759;48.094;-1.628;2023-02-28T09:10:05;20.50;28.80
40738;DHT22;54759;48.094;-1.628;2023-02-28T09:13:06;20.70;28.80
40738;DHT22;54759;48.094;-1.628;2023-02-28T09:16:08;20.70;28.80
40738;DHT22;54759;48.094;-1.628;2023-02-28T09:19:11;20.70;28.80
40738;DHT22;54759;48.094;-1.628;2023-02-28T09:22:13;21.00;28.80
40738;DHT22;54759;48.094;-1.628;2023-02-28T09:25:14;20.90;28.90
40738;DHT22;54759;48.094;-1.628;2023-02-28T09:28:16;20.70;28.70
40738;DHT22;54759;48.094;-1.628;2023-02-28T09:31:18;21.00;28.80
40738;DHT22;54759;48.094;-1.628;2023-02-28T09:34:22;20.90;28.70
40738;DHT22;54759;48.094;-1.628;2023-02-28T09:37:23;20.90;28.80
40738;DHT22;54759;48.094;-1.628;2023-02-28T09:40:25;21.00;28.80
40738;DHT22;54759;48.094;-1.628;2023-02-28T09:43:27;20.90;28.80
40738;DHT22;54759;48.094;-1.628;2023-02-28T09:46:31;20.90;28.90
40738;DHT22;54759;48.094;-1.628;2023-02-28T09:49:36;21.00;28.80
40738;DHT22;54759;48.094;-1.628;2023-02-28T09:52:38;20.70;28.70
40738;DHT22;54759;48.094;-1.628;2023-02-28T09:55:41;21.00;29.00
40738;DHT22;54759;48.094;-1.628;2023-02-28T09:58:49;20.70;28.70
40738;DHT22;54759;48.094;-1.628;2023-02-28T10:01:54;21.00;28.90
40738;DHT22;54759;48.094;-1.628;2023-02-28T10:05:00;20.90;28.60
40738;DHT22;54759;48.094;-1.628;2023-02-28T10:08:05;20.90;28.60
40738;DHT22;54759;48.094;-1.628;2023-02-28T10:11:10;20.80;28.60
40738;DHT22;54759;48.094;-1.628;2023-02-28T10:14:13;21.00;28.70
40738;DHT22;54759;48.094;-1.628;2023-02-28T10:17:16;20.90;28.70
40738;DHT22;54759;48.094;-1.628;2023-02-28T10:20:19;21.00;28.70
40738;DHT22;54759;48.094;-1.628;2023-02-28T10:23:24;21.10;28.60
40738;DHT22;54759;48.094;-1.628;2023-02-28T10:26:27;20.90;28.40
40738;DHT22;54759;48.094;-1.628;2023-02-28T10:29:31;21.00;28.70
40738;DHT22;54759;48.094;-1.628;2023-02-28T10:32:34;20.60;28.40
40738;DHT22;54759;48.094;-1.628;2023-02-28T10:35:36;21.10;28.60
40738;DHT22;54759;48.094;-1.628;2023-02-28T10:38:38;21.00;28.60
40738;DHT22;54759;48.094;-1.628;2023-02-28T10:41:42;20.90;28.50
40738;DHT22;54759;48.094;-1.628;2023-02-28T10:44:43;21.10;28.50
40738;DHT22;54759;48.094;-1.628;2023-02-28T10:47:49;21.10;28.80
40738;DHT22;54759;48.094;-1.628;2023-02-28T10:50:51;21.20;28.60
40738;DHT22;54759;48.094;-1.628;2023-02-28T10:53:53;21.00;28.50
40738;DHT22;54759;48.094;-1.628;2023-02-28T10:57:07;20.90;28.30
40738;DHT22;54759;48.094;-1.628;2023-02-28T11:00:13;21.20;28.40
40738;DHT22;54759;48.094;-1.628;2023-02-28T11:03:23;21.20;28.50
40738;DHT22;54759;48.094;-1.628;2023-02-28T11:06:25;21.10;28.40
40738;DHT22;54759;48.094;-1.628;2023-02-28T11:09:27;21.30;28.40
40738;DHT22;54759;48.094;-1.628;2023-02-28T11:12:33;21.20;28.40
40738;DHT22;54759;48.094;-1.628;2023-02-28T11:15:41;21.50;28.60
40738;DHT22;54759;48.094;-1.628;2023-02-28T11:18:43;21.00;28.20
40738;DHT22;54759;48.094;-1.628;2023-02-28T11:21:48;21.20;28.40
40738;DHT22;54759;48.094;-1.628;2023-02-28T11:24:53;21.10;28.40
40738;DHT22;54759;48.094;-1.628;2023-02-28T11:27:57;21.00;28.20
40738;DHT22;54759;48.094;-1.628;2023-02-28T11:31:05;21.00;28.30
40738;DHT22;54759;48.094;-1.628;2023-02-28T11:37:22;21.10;28.40
40738;DHT22;54759;48.094;-1.628;2023-02-28T11:40:27;21.40;28.40
40738;DHT22;54759;48.094;-1.628;2023-02-28T11:43:34;20.80;28.20
40738;DHT22;54759;48.094;-1.628;2023-02-28T11:46:41;21.30;28.40
40738;DHT22;54759;48.094;-1.628;2023-02-28T11:49:47;20.90;28.20
40738;DHT22;54759;48.094;-1.628;2023-02-28T11:52:52;21.40;28.40
40738;DHT22;54759;48.094;-1.628;2023-02-28T11:55:54;21.20;28.30
40738;DHT22;54759;48.094;-1.628;2023-02-28T11:59:03;21.20;28.20
40738;DHT22;54759;48.094;-1.628;2023-02-28T12:02:20;20.80;28.10
40738;DHT22;54759;48.094;-1.628;2023-02-28T12:05:24;21.10;28.20
40738;DHT22;54759;48.094;-1.628;2023-02-28T12:08:33;21.10;28.20
40738;DHT22;54759;48.094;-1.628;2023-02-28T12:11:44;21.40;28.30
40738;DHT22;54759;48.094;-1.628;2023-02-28T12:14:52;21.20;28.20
40738;DHT22;54759;48.094;-1.628;2023-02-28T12:18:01;21.20;28.20
40738;DHT22;54759;48.094;-1.628;2023-02-28T12:21:08;21.00;28.20
40738;DHT22;54759;48.094;-1.628;2023-02-28T12:24:20;21.20;28.10
40738;DHT22;54759;48.094;-1.628;2023-02-28T12:27:26;21.10;28.10
40738;DHT22;54759;48.094;-1.628;2023-02-28T12:30:30;21.30;28.20
40738;DHT22;54759;48.094;-1.628;2023-02-28T12:33:33;21.20;28.20
40738;DHT22;54759;48.094;-1.628;2023-02-28T12:36:35;21.40;28.20
40738;DHT22;54759;48.094;-1.628;2023-02-28T12:39:38;21.30;28.10
40738;DHT22;54759;48.094;-1.628;2023-02-28T12:42:52;21.40;28.20
40738;DHT22;54759;48.094;-1.628;2023-02-28T12:45:55;21.10;28.40
40738;DHT22;54759;48.094;-1.628;2023-02-28T12:48:58;21.20;28.20
40738;DHT22;54759;48.094;-1.628;2023-02-28T12:52:01;21.30;28.10
40738;DHT22;54759;48.094;-1.628;2023-02-28T12:55:04;21.50;28.20
40738;DHT22;54759;48.094;-1.628;2023-02-28T12:58:12;21.50;28.20
40738;DHT22;54759;48.094;-1.628;2023-02-28T13:11:48;21.00;28.00
40738;DHT22;54759;48.094;-1.628;2023-02-28T13:14:50;21.30;28.20
40738;DHT22;54759;48.094;-1.628;2023-02-28T13:17:52;21.20;28.00
40738;DHT22;54759;48.094;-1.628;2023-02-28T13:20:54;21.50;28.10
40738;DHT22;54759;48.094;-1.628;2023-02-28T13:23:57;21.40;28.10
40738;DHT22;54759;48.094;-1.628;2023-02-28T13:33:33;21.60;28.10
40738;DHT22;54759;48.094;-1.628;2023-02-28T13:36:35;21.30;28.00
40738;DHT22;54759;48.094;-1.628;2023-02-28T13:42:54;21.30;27.80
40738;DHT22;54759;48.094;-1.628;2023-02-28T13:46:04;21.50;27.50
40738;DHT22;54759;48.094;-1.628;2023-02-28T13:52:23;21.40;28.00
40738;DHT22;54759;48.094;-1.628;2023-02-28T13:55:27;21.20;28.00
40738;DHT22;54759;48.094;-1.628;2023-02-28T13:58:36;21.40;27.90
40738;DHT22;54759;48.094;-1.628;2023-02-28T14:01:51;21.20;27.90
40738;DHT22;54759;48.094;-1.628;2023-02-28T14:04:58;21.70;28.10
40738;DHT22;54759;48.094;-1.628;2023-02-28T14:08:04;21.40;28.00
40738;DHT22;54759;48.094;-1.628;2023-02-28T14:11:08;21.50;28.00
40738;DHT22;54759;48.094;-1.628;2023-02-28T14:17:28;21.60;28.00
40738;DHT22;54759;48.094;-1.628;2023-02-28T14:20:31;21.50;28.00
40738;DHT22;54759;48.094;-1.628;2023-02-28T14:23:36;21.50;28.10
40738;DHT22;54759;48.094;-1.628;2023-02-28T14:33:18;21.50;28.00
40738;DHT22;54759;48.094;-1.628;2023-02-28T14:36:23;21.60;28.10
40738;DHT22;54759;48.094;-1.628;2023-02-28T14:39:26;21.30;28.00
40738;DHT22;54759;48.094;-1.628;2023-02-28T14:42:32;21.40;28.10
40738;DHT22;54759;48.094;-1.628;2023-02-28T14:45:34;21.30;28.10
40738;DHT22;54759;48.094;-1.628;2023-02-28T14:48:38;21.70;28.20
40738;DHT22;54759;48.094;-1.628;2023-02-28T14:51:39;21.50;28.10
40738;DHT22;54759;48.094;-1.628;2023-02-28T14:54:41;21.60;28.20
40738;DHT22;54759;48.094;-1.628;2023-02-28T14:57:50;21.40;28.20
40738;DHT22;54759;48.094;-1.628;2023-02-28T15:00:52;21.60;28.20
40738;DHT22;54759;48.094;-1.628;2023-02-28T15:04:00;21.40;28.00
40738;DHT22;54759;48.094;-1.628;2023-02-28T15:07:10;22.00;28.30
40738;DHT22;54759;48.094;-1.628;2023-02-28T15:10:16;21.60;28.30
40738;DHT22;54759;48.094;-1.628;2023-02-28T15:13:18;21.40;28.00
40738;DHT22;54759;48.094;-1.628;2023-02-28T15:16:20;21.40;28.10
40738;DHT22;54759;48.094;-1.628;2023-02-28T15:19:23;21.50;28.20
40738;DHT22;54759;48.094;-1.628;2023-02-28T15:22:27;21.40;28.20
40738;DHT22;54759;48.094;-1.628;2023-02-28T15:25:32;21.50;28.20
40738;DHT22;54759;48.094;-1.628;2023-02-28T15:28:34;21.20;28.20
40738;DHT22;54759;48.094;-1.628;2023-02-28T15:31:39;21.60;28.40
40738;DHT22;54759;48.094;-1.628;2023-02-28T15:34:58;21.40;28.20
40738;DHT22;54759;48.094;-1.628;2023-02-28T15:38:00;21.50;28.20
40738;DHT22;54759;48.094;-1.628;2023-02-28T15:41:03;21.30;28.20
40738;DHT22;54759;48.094;-1.628;2023-02-28T15:44:17;21.30;28.20
40738;DHT22;54759;48.094;-1.628;2023-02-28T15:47:19;21.50;28.20
40738;DHT22;54759;48.094;-1.628;2023-02-28T15:50:21;22.00;28.50
40738;DHT22;54759;48.094;-1.628;2023-02-28T15:53:24;21.50;28.30
40738;DHT22;54759;48.094;-1.628;2023-02-28T15:56:27;21.50;28.30
40738;DHT22;54759;48.094;-1.628;2023-02-28T15:59:29;21.60;28.40
40738;DHT22;54759;48.094;-1.628;2023-02-28T16:02:32;21.50;28.30
40738;DHT22;54759;48.094;-1.628;2023-02-28T16:05:34;21.30;28.30
40738;DHT22;54759;48.094;-1.628;2023-02-28T16:08:36;21.80;28.50
40738;DHT22;54759;48.094;-1.628;2023-02-28T16:11:39;21.50;28.40
40738;DHT22;54759;48.094;-1.628;2023-02-28T16:14:41;21.60;28.40
40738;DHT22;54759;48.094;-1.628;2023-02-28T16:17:43;21.50;28.50
40738;DHT22;54759;48.094;-1.628;2023-02-28T16:20:45;21.70;28.50
40738;DHT22;54759;48.094;-1.628;2023-02-28T16:23:47;21.50;28.30
40738;DHT22;54759;48.094;-1.628;2023-02-28T16:26:50;21.60;28.70
40738;DHT22;54759;48.094;-1.628;2023-02-28T16:29:52;21.60;28.70
40738;DHT22;54759;48.094;-1.628;2023-02-28T16:32:54;21.80;28.90
40738;DHT22;54759;48.094;-1.628;2023-02-28T16:35:56;21.10;28.50
40738;DHT22;54759;48.094;-1.628;2023-02-28T16:38:57;21.70;28.80
40738;DHT22;54759;48.094;-1.628;2023-02-28T16:41:59;21.40;28.80
40738;DHT22;54759;48.094;-1.628;2023-02-28T16:45:00;21.30;28.80
40738;DHT22;54759;48.094;-1.628;2023-02-28T16:48:02;21.40;28.80
40738;DHT22;54759;48.094;-1.628;2023-02-28T16:51:03;21.70;29.00
40738;DHT22;54759;48.094;-1.628;2023-02-28T16:54:05;21.30;28.70
40738;DHT22;54759;48.094;-1.628;2023-02-28T16:57:08;21.60;29.00
40738;DHT22;54759;48.094;-1.628;2023-02-28T17:00:16;21.50;29.00
40738;DHT22;54759;48.094;-1.628;2023-02-28T17:03:20;21.40;29.00
40738;DHT22;54759;48.094;-1.628;2023-02-28T17:06:33;21.50;29.00
40738;DHT22;54759;48.094;-1.628;2023-02-28T17:09:34;21.40;29.10
40738;DHT22;54759;48.094;-1.628;2023-02-28T17:12:44;21.20;29.10
40738;DHT22;54759;48.094;-1.628;2023-02-28T17:15:45;21.80;29.40
40738;DHT22;54759;48.094;-1.628;2023-02-28T17:18:47;21.20;29.10
40738;DHT22;54759;48.094;-1.628;2023-02-28T17:21:48;21.60;29.40
40738;DHT22;54759;48.094;-1.628;2023-02-28T17:24:50;21.30;29.30
40738;DHT22;54759;48.094;-1.628;2023-02-28T17:27:52;21.30;29.10
40738;DHT22;54759;48.094;-1.628;2023-02-28T17:30:53;20.80;29.30
40738;DHT22;54759;48.094;-1.628;2023-02-28T17:33:54;21.40;29.40
40738;DHT22;54759;48.094;-1.628;2023-02-28T17:36:56;21.10;29.30
40738;DHT22;54759;48.094;-1.628;2023-02-28T17:39:57;20.70;29.40
40738;DHT22;54759;48.094;-1.628;2023-02-28T17:42:59;20.90;29.40
40738;DHT22;54759;48.094;-1.628;2023-02-28T17:46:00;21.20;29.70
40738;DHT22;54759;48.094;-1.628;2023-02-28T17:49:02;20.80;29.40
40738;DHT22;54759;48.094;-1.628;2023-02-28T17:52:03;21.30;29.80
40738;DHT22;54759;48.094;-1.628;2023-02-28T17:55:05;21.00;29.60
40738;DHT22;54759;48.094;-1.628;2023-02-28T17:58:08;21.00;29.70
40738;DHT22;54759;48.094;-1.628;2023-02-28T18:01:10;21.00;29.70
40738;DHT22;54759;48.094;-1.628;2023-02-28T18:04:12;21.10;29.80
40738;DHT22;54759;48.094;-1.628;2023-02-28T18:07:14;20.90;29.80
40738;DHT22;54759;48.094;-1.628;2023-02-28T18:10:16;21.00;29.90
40738;DHT22;54759;48.094;-1.628;2023-02-28T18:13:20;21.00;29.80
40738;DHT22;54759;48.094;-1.628;2023-02-28T18:16:21;21.00;29.90
40738;DHT22;54759;48.094;-1.628;2023-02-28T18:19:23;20.60;29.60
40738;DHT22;54759;48.094;-1.628;2023-02-28T18:22:24;20.80;29.80
40738;DHT22;54759;48.094;-1.628;2023-02-28T18:25:26;20.90;29.90
40738;DHT22;54759;48.094;-1.628;2023-02-28T18:28:28;21.10;30.00
40738;DHT22;54759;48.094;-1.628;2023-02-28T18:31:29;20.90;30.00
40738;DHT22;54759;48.094;-1.628;2023-02-28T18:34:32;21.10;30.00
40738;DHT22;54759;48.094;-1.628;2023-02-28T18:37:33;20.70;30.00
40738;DHT22;54759;48.094;-1.628;2023-02-28T18:40:35;21.10;30.10
40738;DHT22;54759;48.094;-1.628;2023-02-28T18:43:37;20.60;30.00
40738;DHT22;54759;48.094;-1.628;2023-02-28T18:46:38;20.70;30.00
40738;DHT22;54759;48.094;-1.628;2023-02-28T18:49:40;20.70;30.00
40738;DHT22;54759;48.094;-1.628;2023-02-28T18:52:41;21.10;30.40
40738;DHT22;54759;48.094;-1.628;2023-02-28T18:55:42;20.80;30.20
40738;DHT22;54759;48.094;-1.628;2023-02-28T18:58:44;21.20;30.50
40738;DHT22;54759;48.094;-1.628;2023-02-28T19:01:46;20.90;30.40
40738;DHT22;54759;48.094;-1.628;2023-02-28T19:04:47;20.30;30.10
40738;DHT22;54759;48.094;-1.628;2023-02-28T19:07:49;20.50;30.20
40738;DHT22;54759;48.094;-1.628;2023-02-28T19:10:50;20.90;30.50
40738;DHT22;54759;48.094;-1.628;2023-02-28T19:13:52;20.70;30.40
40738;DHT22;54759;48.094;-1.628;2023-02-28T19:16:53;20.90;30.60
40738;DHT22;54759;48.094;-1.628;2023-02-28T19:19:55;20.80;30.60
40738;DHT22;54759;48.094;-1.628;2023-02-28T19:22:56;21.00;30.70
40738;DHT22;54759;48.094;-1.628;2023-02-28T19:25:58;20.80;30.60
40738;DHT22;54759;48.094;-1.628;2023-02-28T19:29:01;20.90;30.70
40738;DHT22;54759;48.094;-1.628;2023-02-28T19:32:02;20.50;30.50
40738;DHT22;54759;48.094;-1.628;2023-02-28T19:35:04;20.90;30.80
40738;DHT22;54759;48.094;-1.628;2023-02-28T19:38:05;20.60;30.70